Longlac, Canada
Current Conditions -  °F | °C
As of 5:00 PM on Thursday 27 Nov 2014 (Local Time) from CYGQ Reporting Station
Few Clouds Few Clouds  
Wind Chill: -4°   Ceiling: Unl
Heat Index: -4°   Visibility: 15mi
Dew Point: -13°   Wind: 3mph
Humidity: 65%   Direction: 300°WNW
Pressure: 30.28"   Gusts: NA
Location:  49.78°N, 86.54°W
Report Text: CYGQ 272200Z 30003KT 15SM FEW250 M20/M25 A3028 RMK CI0 SLP298
Loading
Personal Weather Stations






























Interactive Weather Map New forecast layout! Learn more

10-Day Weather Forecast

Advertisements
Track Severe Weather on mobile